sensor_id;sensor_type;location;lat;lon;timestamp;P1;durP1;ratioP1;P2;durP2;ratioP2
19985;SDS011;10154;52.474;10.768;2024-03-02T00:16:01;35.83;;;14.53;;
19985;SDS011;10154;52.474;10.768;2024-03-02T00:18:27;34.33;;;14.37;;
19985;SDS011;10154;52.474;10.768;2024-03-02T00:20:56;34.70;;;14.23;;
19985;SDS011;10154;52.474;10.768;2024-03-02T00:23:22;33.50;;;14.27;;
19985;SDS011;10154;52.474;10.768;2024-03-02T00:25:52;32.73;;;15.00;;
19985;SDS011;10154;52.474;10.768;2024-03-02T00:28:24;33.57;;;13.87;;
19985;SDS011;10154;52.474;10.768;2024-03-02T00:31:07;32.90;;;14.23;;
19985;SDS011;10154;52.474;10.768;2024-03-02T00:33:34;34.33;;;14.57;;
19985;SDS011;10154;52.474;10.768;2024-03-02T00:36:01;33.33;;;14.43;;
19985;SDS011;10154;52.474;10.768;2024-03-02T00:38:28;32.47;;;14.03;;
19985;SDS011;10154;52.474;10.768;2024-03-02T00:40:54;33.27;;;14.17;;
19985;SDS011;10154;52.474;10.768;2024-03-02T00:46:04;30.27;;;13.97;;
19985;SDS011;10154;52.474;10.768;2024-03-02T00:48:29;32.50;;;13.93;;
19985;SDS011;10154;52.474;10.768;2024-03-02T00:50:56;38.83;;;15.53;;
19985;SDS011;10154;52.474;10.768;2024-03-02T00:53:22;33.73;;;14.63;;
19985;SDS011;10154;52.474;10.768;2024-03-02T00:55:49;33.67;;;14.83;;
19985;SDS011;10154;52.474;10.768;2024-03-02T00:58:15;37.03;;;14.27;;
19985;SDS011;10154;52.474;10.768;2024-03-02T01:00:40;37.40;;;15.40;;
19985;SDS011;10154;52.474;10.768;2024-03-02T01:03:06;38.10;;;15.27;;
19985;SDS011;10154;52.474;10.768;2024-03-02T01:05:32;35.00;;;15.30;;
19985;SDS011;10154;52.474;10.768;2024-03-02T01:07:58;38.30;;;15.77;;
19985;SDS011;10154;52.474;10.768;2024-03-02T01:10:23;34.23;;;14.70;;
19985;SDS011;10154;52.474;10.768;2024-03-02T01:12:50;40.47;;;15.40;;
19985;SDS011;10154;52.474;10.768;2024-03-02T01:15:16;34.83;;;14.50;;
19985;SDS011;10154;52.474;10.768;2024-03-02T01:17:41;33.07;;;13.87;;
19985;SDS011;10154;52.474;10.768;2024-03-02T01:20:07;35.87;;;14.83;;
19985;SDS011;10154;52.474;10.768;2024-03-02T01:22:34;39.60;;;14.43;;
19985;SDS011;10154;52.474;10.768;2024-03-02T01:25:00;35.43;;;16.03;;
19985;SDS011;10154;52.474;10.768;2024-03-02T01:27:26;41.27;;;16.80;;
19985;SDS011;10154;52.474;10.768;2024-03-02T01:29:52;42.40;;;17.00;;
19985;SDS011;10154;52.474;10.768;2024-03-02T01:32:17;46.27;;;17.90;;
19985;SDS011;10154;52.474;10.768;2024-03-02T01:34:42;46.90;;;17.47;;
19985;SDS011;10154;52.474;10.768;2024-03-02T01:37:08;39.43;;;16.97;;
19985;SDS011;10154;52.474;10.768;2024-03-02T01:39:35;41.97;;;17.17;;
19985;SDS011;10154;52.474;10.768;2024-03-02T01:42:00;41.90;;;16.40;;
19985;SDS011;10154;52.474;10.768;2024-03-02T01:44:25;42.33;;;16.70;;
19985;SDS011;10154;52.474;10.768;2024-03-02T01:46:51;39.40;;;17.43;;
19985;SDS011;10154;52.474;10.768;2024-03-02T01:49:16;46.37;;;18.17;;
19985;SDS011;10154;52.474;10.768;2024-03-02T01:51:42;42.70;;;16.67;;
19985;SDS011;10154;52.474;10.768;2024-03-02T01:54:07;39.57;;;16.83;;
19985;SDS011;10154;52.474;10.768;2024-03-02T01:56:32;41.80;;;18.17;;
19985;SDS011;10154;52.474;10.768;2024-03-02T01:58:58;44.20;;;17.53;;
19985;SDS011;10154;52.474;10.768;2024-03-02T02:01:23;42.93;;;17.07;;
19985;SDS011;10154;52.474;10.768;2024-03-02T02:03:49;44.33;;;17.97;;
19985;SDS011;10154;52.474;10.768;2024-03-02T02:06:14;47.50;;;19.20;;
19985;SDS011;10154;52.474;10.768;2024-03-02T02:08:39;45.53;;;18.70;;
19985;SDS011;10154;52.474;10.768;2024-03-02T02:11:05;48.10;;;19.07;;
19985;SDS011;10154;52.474;10.768;2024-03-02T02:13:30;51.27;;;19.00;;
19985;SDS011;10154;52.474;10.768;2024-03-02T02:15:58;45.33;;;18.77;;
19985;SDS011;10154;52.474;10.768;2024-03-02T02:18:29;49.80;;;19.33;;
19985;SDS011;10154;52.474;10.768;2024-03-02T02:20:54;44.67;;;18.73;;
19985;SDS011;10154;52.474;10.768;2024-03-02T02:23:20;46.67;;;18.60;;
19985;SDS011;10154;52.474;10.768;2024-03-02T02:25:45;50.47;;;20.60;;
19985;SDS011;10154;52.474;10.768;2024-03-02T02:28:11;45.73;;;18.77;;
19985;SDS011;10154;52.474;10.768;2024-03-02T02:30:36;48.77;;;19.20;;
19985;SDS011;10154;52.474;10.768;2024-03-02T02:33:02;45.97;;;19.63;;
19985;SDS011;10154;52.474;10.768;2024-03-02T02:35:27;48.70;;;19.73;;
19985;SDS011;10154;52.474;10.768;2024-03-02T02:37:54;49.77;;;19.77;;
19985;SDS011;10154;52.474;10.768;2024-03-02T02:40:20;47.83;;;18.83;;
19985;SDS011;10154;52.474;10.768;2024-03-02T02:42:45;46.83;;;19.50;;
19985;SDS011;10154;52.474;10.768;2024-03-02T02:45:11;41.20;;;18.37;;
19985;SDS011;10154;52.474;10.768;2024-03-02T02:47:38;56.10;;;20.30;;
19985;SDS011;10154;52.474;10.768;2024-03-02T02:50:03;48.10;;;19.17;;
19985;SDS011;10154;52.474;10.768;2024-03-02T02:52:33;42.13;;;18.43;;
19985;SDS011;10154;52.474;10.768;2024-03-02T02:55:00;48.43;;;19.60;;
19985;SDS011;10154;52.474;10.768;2024-03-02T02:57:26;48.33;;;19.67;;
19985;SDS011;10154;52.474;10.768;2024-03-02T02:59:51;48.20;;;19.53;;
19985;SDS011;10154;52.474;10.768;2024-03-02T03:02:16;47.37;;;19.50;;
19985;SDS011;10154;52.474;10.768;2024-03-02T03:04:42;48.03;;;19.43;;
19985;SDS011;10154;52.474;10.768;2024-03-02T03:07:07;44.37;;;19.40;;
19985;SDS011;10154;52.474;10.768;2024-03-02T03:09:32;44.93;;;18.60;;
19985;SDS011;10154;52.474;10.768;2024-03-02T03:11:58;45.93;;;19.00;;
19985;SDS011;10154;52.474;10.768;2024-03-02T03:14:23;46.53;;;19.07;;
19985;SDS011;10154;52.474;10.768;2024-03-02T03:16:48;49.23;;;18.90;;
19985;SDS011;10154;52.474;10.768;2024-03-02T03:19:15;47.37;;;19.40;;
19985;SDS011;10154;52.474;10.768;2024-03-02T03:21:40;48.13;;;18.80;;
19985;SDS011;10154;52.474;10.768;2024-03-02T03:24:05;44.17;;;18.30;;
19985;SDS011;10154;52.474;10.768;2024-03-02T03:26:31;45.77;;;19.00;;
19985;SDS011;10154;52.474;10.768;2024-03-02T03:28:56;48.70;;;20.27;;
19985;SDS011;10154;52.474;10.768;2024-03-02T03:31:23;49.53;;;19.60;;
19985;SDS011;10154;52.474;10.768;2024-03-02T03:33:48;52.93;;;19.60;;
19985;SDS011;10154;52.474;10.768;2024-03-02T03:36:13;48.67;;;19.47;;
19985;SDS011;10154;52.474;10.768;2024-03-02T03:38:39;51.33;;;19.73;;
19985;SDS011;10154;52.474;10.768;2024-03-02T03:41:04;52.13;;;19.70;;
19985;SDS011;10154;52.474;10.768;2024-03-02T03:43:29;52.87;;;20.67;;
19985;SDS011;10154;52.474;10.768;2024-03-02T03:45:55;51.33;;;20.57;;
19985;SDS011;10154;52.474;10.768;2024-03-02T03:48:20;53.90;;;20.47;;
19985;SDS011;10154;52.474;10.768;2024-03-02T03:50:45;59.03;;;22.43;;
19985;SDS011;10154;52.474;10.768;2024-03-02T03:53:11;57.63;;;21.33;;
19985;SDS011;10154;52.474;10.768;2024-03-02T03:55:36;59.40;;;22.00;;
19985;SDS011;10154;52.474;10.768;2024-03-02T03:58:01;62.23;;;22.80;;
19985;SDS011;10154;52.474;10.768;2024-03-02T04:00:27;58.37;;;23.13;;
19985;SDS011;10154;52.474;10.768;2024-03-02T04:02:52;57.53;;;23.90;;
19985;SDS011;10154;52.474;10.768;2024-03-02T04:05:17;62.67;;;22.83;;
19985;SDS011;10154;52.474;10.768;2024-03-02T04:07:43;59.30;;;23.23;;
19985;SDS011;10154;52.474;10.768;2024-03-02T04:10:11;62.33;;;23.10;;
19985;SDS011;10154;52.474;10.768;2024-03-02T04:12:37;56.37;;;23.20;;
19985;SDS011;10154;52.474;10.768;2024-03-02T04:15:03;55.33;;;23.10;;
19985;SDS011;10154;52.474;10.768;2024-03-02T04:17:32;58.50;;;23.60;;
19985;SDS011;10154;52.474;10.768;2024-03-02T04:19:58;56.83;;;22.87;;
19985;SDS011;10154;52.474;10.768;2024-03-02T04:22:24;56.87;;;22.10;;
19985;SDS011;10154;52.474;10.768;2024-03-02T04:24:50;55.80;;;22.27;;
19985;SDS011;10154;52.474;10.768;2024-03-02T04:27:15;56.23;;;21.67;;
19985;SDS011;10154;52.474;10.768;2024-03-02T04:29:41;60.13;;;23.50;;
19985;SDS011;10154;52.474;10.768;2024-03-02T04:32:06;58.33;;;22.63;;
19985;SDS011;10154;52.474;10.768;2024-03-02T04:34:32;58.37;;;22.17;;
19985;SDS011;10154;52.474;10.768;2024-03-02T04:36:57;58.40;;;22.97;;
19985;SDS011;10154;52.474;10.768;2024-03-02T04:39:22;56.97;;;22.63;;
19985;SDS011;10154;52.474;10.768;2024-03-02T04:41:48;63.40;;;24.80;;
19985;SDS011;10154;52.474;10.768;2024-03-02T04:44:13;61.70;;;24.20;;
19985;SDS011;10154;52.474;10.768;2024-03-02T04:46:38;58.43;;;23.37;;
19985;SDS011;10154;52.474;10.768;2024-03-02T04:49:04;59.10;;;23.60;;
19985;SDS011;10154;52.474;10.768;2024-03-02T04:51:29;57.33;;;22.57;;
19985;SDS011;10154;52.474;10.768;2024-03-02T04:53:55;57.47;;;25.20;;
19985;SDS011;10154;52.474;10.768;2024-03-02T04:56:20;67.60;;;25.73;;
19985;SDS011;10154;52.474;10.768;2024-03-02T04:59:06;67.93;;;25.83;;
19985;SDS011;10154;52.474;10.768;2024-03-02T05:01:31;63.20;;;25.13;;
19985;SDS011;10154;52.474;10.768;2024-03-02T05:03:58;66.93;;;25.90;;
19985;SDS011;10154;52.474;10.768;2024-03-02T05:06:23;63.73;;;25.40;;
19985;SDS011;10154;52.474;10.768;2024-03-02T05:08:48;62.03;;;25.60;;
19985;SDS011;10154;52.474;10.768;2024-03-02T05:11:14;68.00;;;25.70;;
19985;SDS011;10154;52.474;10.768;2024-03-02T05:14:13;64.20;;;25.60;;
19985;SDS011;10154;52.474;10.768;2024-03-02T05:16:39;64.77;;;25.07;;
19985;SDS011;10154;52.474;10.768;2024-03-02T05:19:05;72.50;;;25.77;;
19985;SDS011;10154;52.474;10.768;2024-03-02T05:21:33;60.17;;;24.50;;
19985;SDS011;10154;52.474;10.768;2024-03-02T05:23:59;57.90;;;24.30;;
19985;SDS011;10154;52.474;10.768;2024-03-02T05:26:25;61.10;;;24.40;;
19985;SDS011;10154;52.474;10.768;2024-03-02T05:28:50;61.83;;;24.60;;
19985;SDS011;10154;52.474;10.768;2024-03-02T05:31:16;65.77;;;24.37;;
19985;SDS011;10154;52.474;10.768;2024-03-02T05:33:42;58.63;;;24.10;;
19985;SDS011;10154;52.474;10.768;2024-03-02T05:36:07;58.43;;;23.90;;
19985;SDS011;10154;52.474;10.768;2024-03-02T05:38:36;62.83;;;24.53;;
19985;SDS011;10154;52.474;10.768;2024-03-02T05:41:01;58.17;;;24.00;;
19985;SDS011;10154;52.474;10.768;2024-03-02T05:43:27;61.47;;;24.73;;
19985;SDS011;10154;52.474;10.768;2024-03-02T05:45:52;56.10;;;23.03;;
19985;SDS011;10154;52.474;10.768;2024-03-02T05:48:18;60.03;;;25.27;;
19985;SDS011;10154;52.474;10.768;2024-03-02T05:50:43;57.13;;;23.70;;
19985;SDS011;10154;52.474;10.768;2024-03-02T05:53:08;60.57;;;24.20;;
19985;SDS011;10154;52.474;10.768;2024-03-02T05:55:34;63.83;;;25.33;;
19985;SDS011;10154;52.474;10.768;2024-03-02T05:57:59;62.60;;;24.97;;
19985;SDS011;10154;52.474;10.768;2024-03-02T06:00:31;61.07;;;24.37;;
19985;SDS011;10154;52.474;10.768;2024-03-02T06:02:56;62.20;;;24.73;;
19985;SDS011;10154;52.474;10.768;2024-03-02T06:05:22;65.00;;;24.90;;
19985;SDS011;10154;52.474;10.768;2024-03-02T06:07:47;64.07;;;24.97;;
19985;SDS011;10154;52.474;10.768;2024-03-02T06:10:13;65.60;;;24.77;;
19985;SDS011;10154;52.474;10.768;2024-03-02T06:12:39;61.83;;;24.07;;
19985;SDS011;10154;52.474;10.768;2024-03-02T06:15:04;63.37;;;24.70;;
19985;SDS011;10154;52.474;10.768;2024-03-02T06:17:30;60.83;;;24.17;;
19985;SDS011;10154;52.474;10.768;2024-03-02T06:19:55;60.83;;;24.87;;
19985;SDS011;10154;52.474;10.768;2024-03-02T06:22:21;64.60;;;25.40;;
19985;SDS011;10154;52.474;10.768;2024-03-02T06:24:48;61.10;;;24.77;;
19985;SDS011;10154;52.474;10.768;2024-03-02T06:27:14;64.30;;;24.90;;
19985;SDS011;10154;52.474;10.768;2024-03-02T06:29:39;64.30;;;25.50;;
19985;SDS011;10154;52.474;10.768;2024-03-02T06:32:04;64.87;;;24.97;;
19985;SDS011;10154;52.474;10.768;2024-03-02T06:34:30;66.07;;;26.10;;
19985;SDS011;10154;52.474;10.768;2024-03-02T06:36:55;75.40;;;27.17;;
19985;SDS011;10154;52.474;10.768;2024-03-02T06:39:21;68.90;;;25.83;;
19985;SDS011;10154;52.474;10.768;2024-03-02T06:41:46;64.87;;;26.07;;
19985;SDS011;10154;52.474;10.768;2024-03-02T06:44:14;63.07;;;26.13;;
19985;SDS011;10154;52.474;10.768;2024-03-02T06:46:39;68.70;;;26.20;;
19985;SDS011;10154;52.474;10.768;2024-03-02T06:49:05;65.23;;;27.77;;
19985;SDS011;10154;52.474;10.768;2024-03-02T06:51:30;65.10;;;28.60;;
19985;SDS011;10154;52.474;10.768;2024-03-02T06:53:55;67.57;;;28.60;;
19985;SDS011;10154;52.474;10.768;2024-03-02T06:56:21;69.13;;;28.43;;
19985;SDS011;10154;52.474;10.768;2024-03-02T06:58:46;64.90;;;27.97;;
19985;SDS011;10154;52.474;10.768;2024-03-02T07:01:12;58.83;;;25.13;;
19985;SDS011;10154;52.474;10.768;2024-03-02T07:03:37;66.43;;;24.17;;
19985;SDS011;10154;52.474;10.768;2024-03-02T07:06:04;59.77;;;26.70;;
19985;SDS011;10154;52.474;10.768;2024-03-02T07:08:30;54.63;;;24.17;;
19985;SDS011;10154;52.474;10.768;2024-03-02T07:10:55;54.67;;;26.63;;
19985;SDS011;10154;52.474;10.768;2024-03-02T07:13:21;59.77;;;26.63;;
19985;SDS011;10154;52.474;10.768;2024-03-02T07:15:47;59.43;;;25.30;;
19985;SDS011;10154;52.474;10.768;2024-03-02T07:18:35;59.33;;;25.27;;
19985;SDS011;10154;52.474;10.768;2024-03-02T07:21:06;55.53;;;24.03;;
19985;SDS011;10154;52.474;10.768;2024-03-02T07:23:32;53.77;;;23.37;;
19985;SDS011;10154;52.474;10.768;2024-03-02T07:25:57;56.80;;;23.97;;
19985;SDS011;10154;52.474;10.768;2024-03-02T07:28:25;53.23;;;23.57;;
19985;SDS011;10154;52.474;10.768;2024-03-02T07:31:24;58.30;;;22.93;;
19985;SDS011;10154;52.474;10.768;2024-03-02T07:33:45;57.27;;;23.63;;
19985;SDS011;10154;52.474;10.768;2024-03-02T07:36:13;56.17;;;22.40;;
19985;SDS011;10154;52.474;10.768;2024-03-02T07:38:39;55.00;;;22.57;;
19985;SDS011;10154;52.474;10.768;2024-03-02T07:41:05;55.63;;;24.00;;
19985;SDS011;10154;52.474;10.768;2024-03-02T07:43:31;52.87;;;23.67;;
19985;SDS011;10154;52.474;10.768;2024-03-02T07:46:00;53.03;;;23.17;;
19985;SDS011;10154;52.474;10.768;2024-03-02T07:48:25;55.47;;;23.13;;
19985;SDS011;10154;52.474;10.768;2024-03-02T07:50:52;52.57;;;23.03;;
19985;SDS011;10154;52.474;10.768;2024-03-02T07:53:17;53.30;;;22.43;;
19985;SDS011;10154;52.474;10.768;2024-03-02T07:55:42;55.37;;;22.83;;
19985;SDS011;10154;52.474;10.768;2024-03-02T07:58:08;54.80;;;22.70;;
19985;SDS011;10154;52.474;10.768;2024-03-02T08:00:33;49.60;;;22.13;;
19985;SDS011;10154;52.474;10.768;2024-03-02T08:02:59;45.97;;;20.93;;
19985;SDS011;10154;52.474;10.768;2024-03-02T08:05:24;50.10;;;23.17;;
19985;SDS011;10154;52.474;10.768;2024-03-02T08:07:49;51.80;;;22.97;;
19985;SDS011;10154;52.474;10.768;2024-03-02T08:10:18;52.73;;;22.67;;
19985;SDS011;10154;52.474;10.768;2024-03-02T08:12:44;46.70;;;22.27;;
19985;SDS011;10154;52.474;10.768;2024-03-02T08:15:09;50.27;;;22.03;;
19985;SDS011;10154;52.474;10.768;2024-03-02T08:17:35;48.63;;;21.40;;
19985;SDS011;10154;52.474;10.768;2024-03-02T08:20:00;51.30;;;22.23;;
19985;SDS011;10154;52.474;10.768;2024-03-02T08:22:25;47.57;;;21.13;;
19985;SDS011;10154;52.474;10.768;2024-03-02T08:24:51;49.47;;;21.30;;
19985;SDS011;10154;52.474;10.768;2024-03-02T08:27:16;43.93;;;19.97;;
19985;SDS011;10154;52.474;10.768;2024-03-02T08:29:42;50.10;;;21.03;;
19985;SDS011;10154;52.474;10.768;2024-03-02T08:32:07;42.77;;;19.67;;
19985;SDS011;10154;52.474;10.768;2024-03-02T08:34:32;42.73;;;19.63;;
19985;SDS011;10154;52.474;10.768;2024-03-02T08:37:00;44.63;;;20.17;;
19985;SDS011;10154;52.474;10.768;2024-03-02T08:39:26;41.03;;;20.00;;
19985;SDS011;10154;52.474;10.768;2024-03-02T08:41:52;37.17;;;17.63;;
19985;SDS011;10154;52.474;10.768;2024-03-02T08:44:18;38.67;;;18.83;;
19985;SDS011;10154;52.474;10.768;2024-03-02T08:46:43;37.90;;;17.67;;
19985;SDS011;10154;52.474;10.768;2024-03-02T08:49:08;36.30;;;18.47;;
19985;SDS011;10154;52.474;10.768;2024-03-02T08:51:34;34.77;;;16.57;;
19985;SDS011;10154;52.474;10.768;2024-03-02T08:53:59;34.00;;;16.53;;
19985;SDS011;10154;52.474;10.768;2024-03-02T08:56:25;34.87;;;16.53;;
19985;SDS011;10154;52.474;10.768;2024-03-02T08:58:50;32.03;;;15.90;;
19985;SDS011;10154;52.474;10.768;2024-03-02T09:01:16;33.30;;;15.27;;
19985;SDS011;10154;52.474;10.768;2024-03-02T09:03:43;31.20;;;15.10;;
19985;SDS011;10154;52.474;10.768;2024-03-02T09:06:11;33.67;;;15.47;;
19985;SDS011;10154;52.474;10.768;2024-03-02T09:08:37;28.70;;;14.77;;
19985;SDS011;10154;52.474;10.768;2024-03-02T09:11:04;29.23;;;14.63;;
19985;SDS011;10154;52.474;10.768;2024-03-02T09:13:29;29.93;;;15.00;;
19985;SDS011;10154;52.474;10.768;2024-03-02T09:15:55;32.03;;;15.23;;
19985;SDS011;10154;52.474;10.768;2024-03-02T09:18:20;28.75;;;14.45;;
19985;SDS011;10154;52.474;10.768;2024-03-02T09:20:45;27.08;;;13.93;;
19985;SDS011;10154;52.474;10.768;2024-03-02T09:23:11;30.38;;;13.77;;
19985;SDS011;10154;52.474;10.768;2024-03-02T09:29:27;25.17;;;12.23;;
19985;SDS011;10154;52.474;10.768;2024-03-02T09:31:53;26.83;;;12.93;;
19985;SDS011;10154;52.474;10.768;2024-03-02T09:34:18;25.38;;;13.45;;
19985;SDS011;10154;52.474;10.768;2024-03-02T09:36:44;23.17;;;12.77;;
19985;SDS011;10154;52.474;10.768;2024-03-02T09:39:09;27.05;;;13.07;;
19985;SDS011;10154;52.474;10.768;2024-03-02T09:41:36;23.63;;;12.00;;
19985;SDS011;10154;52.474;10.768;2024-03-02T09:44:02;22.27;;;12.15;;
19985;SDS011;10154;52.474;10.768;2024-03-02T09:46:28;24.52;;;12.57;;
19985;SDS011;10154;52.474;10.768;2024-03-02T09:48:53;23.27;;;12.25;;
19985;SDS011;10154;52.474;10.768;2024-03-02T09:51:19;22.20;;;12.85;;
19985;SDS011;10154;52.474;10.768;2024-03-02T09:53:44;22.52;;;12.52;;
19985;SDS011;10154;52.474;10.768;2024-03-02T09:56:10;25.48;;;12.93;;
19985;SDS011;10154;52.474;10.768;2024-03-02T09:58:36;23.77;;;12.02;;
19985;SDS011;10154;52.474;10.768;2024-03-02T10:01:05;26.15;;;13.30;;
19985;SDS011;10154;52.474;10.768;2024-03-02T10:03:31;25.15;;;12.23;;
19985;SDS011;10154;52.474;10.768;2024-03-02T10:06:17;25.50;;;12.02;;
19985;SDS011;10154;52.474;10.768;2024-03-02T10:08:50;22.95;;;12.45;;
19985;SDS011;10154;52.474;10.768;2024-03-02T10:11:25;19.77;;;11.10;;
19985;SDS011;10154;52.474;10.768;2024-03-02T10:13:55;24.77;;;12.63;;
19985;SDS011;10154;52.474;10.768;2024-03-02T10:16:29;25.00;;;12.50;;
19985;SDS011;10154;52.474;10.768;2024-03-02T10:18:55;21.52;;;12.10;;
19985;SDS011;10154;52.474;10.768;2024-03-02T10:21:20;24.95;;;11.52;;
19985;SDS011;10154;52.474;10.768;2024-03-02T10:23:49;22.02;;;12.18;;
19985;SDS011;10154;52.474;10.768;2024-03-02T10:26:17;21.95;;;11.45;;
19985;SDS011;10154;52.474;10.768;2024-03-02T10:28:48;23.35;;;11.90;;
19985;SDS011;10154;52.474;10.768;2024-03-02T10:31:13;22.67;;;11.30;;
19985;SDS011;10154;52.474;10.768;2024-03-02T10:33:39;23.70;;;11.68;;
19985;SDS011;10154;52.474;10.768;2024-03-02T10:36:05;20.63;;;10.93;;
19985;SDS011;10154;52.474;10.768;2024-03-02T10:38:30;17.90;;;9.90;;
19985;SDS011;10154;52.474;10.768;2024-03-02T10:40:56;19.75;;;10.40;;
19985;SDS011;10154;52.474;10.768;2024-03-02T10:43:24;18.65;;;10.45;;
19985;SDS011;10154;52.474;10.768;2024-03-02T10:45:50;19.80;;;10.52;;
19985;SDS011;10154;52.474;10.768;2024-03-02T10:48:16;17.63;;;9.88;;
19985;SDS011;10154;52.474;10.768;2024-03-02T10:50:41;17.75;;;10.15;;
19985;SDS011;10154;52.474;10.768;2024-03-02T10:53:06;15.77;;;9.40;;
19985;SDS011;10154;52.474;10.768;2024-03-02T10:55:32;18.33;;;10.65;;
19985;SDS011;10154;52.474;10.768;2024-03-02T10:57:58;18.60;;;10.30;;
19985;SDS011;10154;52.474;10.768;2024-03-02T11:00:26;20.75;;;11.45;;
19985;SDS011;10154;52.474;10.768;2024-03-02T11:03:02;23.10;;;11.45;;
19985;SDS011;10154;52.474;10.768;2024-03-02T11:05:44;23.20;;;11.77;;
19985;SDS011;10154;52.474;10.768;2024-03-02T11:08:13;21.38;;;11.60;;
19985;SDS011;10154;52.474;10.768;2024-03-02T11:10:48;20.15;;;10.45;;
19985;SDS011;10154;52.474;10.768;2024-03-02T11:13:18;17.67;;;10.52;;
19985;SDS011;10154;52.474;10.768;2024-03-02T11:15:49;22.80;;;12.02;;
19985;SDS011;10154;52.474;10.768;2024-03-02T11:18:17;21.42;;;11.15;;
19985;SDS011;10154;52.474;10.768;2024-03-02T11:20:43;20.80;;;11.25;;
19985;SDS011;10154;52.474;10.768;2024-03-02T11:23:09;24.73;;;11.75;;
19985;SDS011;10154;52.474;10.768;2024-03-02T11:25:35;20.38;;;11.02;;
19985;SDS011;10154;52.474;10.768;2024-03-02T11:32:57;20.15;;;10.13;;
19985;SDS011;10154;52.474;10.768;2024-03-02T11:35:31;20.00;;;10.25;;
19985;SDS011;10154;52.474;10.768;2024-03-02T11:37:57;14.90;;;8.48;;
19985;SDS011;10154;52.474;10.768;2024-03-02T11:47:10;13.35;;;7.13;;
19985;SDS011;10154;52.474;10.768;2024-03-02T11:49:46;14.90;;;7.22;;
19985;SDS011;10154;52.474;10.768;2024-03-02T11:52:50;12.75;;;5.90;;
19985;SDS011;10154;52.474;10.768;2024-03-02T11:55:16;13.32;;;6.57;;
19985;SDS011;10154;52.474;10.768;2024-03-02T11:57:41;15.48;;;8.82;;
19985;SDS011;10154;52.474;10.768;2024-03-02T12:00:16;12.20;;;6.35;;
19985;SDS011;10154;52.474;10.768;2024-03-02T12:02:42;14.10;;;6.78;;
19985;SDS011;10154;52.474;10.768;2024-03-02T12:05:10;11.20;;;5.70;;
19985;SDS011;10154;52.474;10.768;2024-03-02T12:07:35;12.73;;;5.28;;
19985;SDS011;10154;52.474;10.768;2024-03-02T12:10:00;10.27;;;5.10;;
19985;SDS011;10154;52.474;10.768;2024-03-02T12:12:26;8.15;;;4.88;;
19985;SDS011;10154;52.474;10.768;2024-03-02T12:14:52;13.38;;;6.30;;
19985;SDS011;10154;52.474;10.768;2024-03-02T12:17:20;13.48;;;7.03;;
19985;SDS011;10154;52.474;10.768;2024-03-02T12:19:45;13.55;;;6.75;;
19985;SDS011;10154;52.474;10.768;2024-03-02T12:22:11;10.40;;;5.93;;
19985;SDS011;10154;52.474;10.768;2024-03-02T12:24:36;10.20;;;5.05;;
19985;SDS011;10154;52.474;10.768;2024-03-02T12:27:02;8.82;;;4.60;;
19985;SDS011;10154;52.474;10.768;2024-03-02T12:29:28;8.88;;;4.38;;
19985;SDS011;10154;52.474;10.768;2024-03-02T12:31:56;11.05;;;4.90;;
19985;SDS011;10154;52.474;10.768;2024-03-02T12:34:22;9.25;;;4.65;;
19985;SDS011;10154;52.474;10.768;2024-03-02T12:36:48;11.32;;;7.00;;
19985;SDS011;10154;52.474;10.768;2024-03-02T12:39:20;11.70;;;6.18;;
19985;SDS011;10154;52.474;10.768;2024-03-02T12:41:48;9.88;;;4.38;;
19985;SDS011;10154;52.474;10.768;2024-03-02T12:44:15;13.30;;;5.68;;
19985;SDS011;10154;52.474;10.768;2024-03-02T12:46:41;10.32;;;5.50;;
19985;SDS011;10154;52.474;10.768;2024-03-02T12:49:10;12.93;;;6.90;;
19985;SDS011;10154;52.474;10.768;2024-03-02T12:51:45;11.05;;;5.75;;
19985;SDS011;10154;52.474;10.768;2024-03-02T12:54:16;11.10;;;5.97;;
19985;SDS011;10154;52.474;10.768;2024-03-02T12:56:42;13.25;;;6.45;;
19985;SDS011;10154;52.474;10.768;2024-03-02T12:59:21;12.77;;;5.50;;
19985;SDS011;10154;52.474;10.768;2024-03-02T13:01:52;10.80;;;5.60;;
19985;SDS011;10154;52.474;10.768;2024-03-02T13:04:21;9.38;;;5.07;;
19985;SDS011;10154;52.474;10.768;2024-03-02T13:06:48;7.32;;;4.20;;
19985;SDS011;10154;52.474;10.768;2024-03-02T13:09:13;8.43;;;3.60;;
19985;SDS011;10154;52.474;10.768;2024-03-02T13:11:39;7.63;;;3.42;;
19985;SDS011;10154;52.474;10.768;2024-03-02T13:14:05;4.82;;;2.45;;
19985;SDS011;10154;52.474;10.768;2024-03-02T13:16:30;6.82;;;3.10;;
19985;SDS011;10154;52.474;10.768;2024-03-02T13:18:56;6.45;;;3.25;;
19985;SDS011;10154;52.474;10.768;2024-03-02T13:21:21;7.65;;;4.00;;
19985;SDS011;10154;52.474;10.768;2024-03-02T13:23:47;8.43;;;4.00;;
19985;SDS011;10154;52.474;10.768;2024-03-02T13:26:12;7.38;;;4.00;;
19985;SDS011;10154;52.474;10.768;2024-03-02T13:28:39;7.60;;;4.40;;
19985;SDS011;10154;52.474;10.768;2024-03-02T13:31:05;8.43;;;3.85;;
19985;SDS011;10154;52.474;10.768;2024-03-02T13:33:30;7.80;;;4.13;;
19985;SDS011;10154;52.474;10.768;2024-03-02T13:35:57;8.25;;;4.20;;
19985;SDS011;10154;52.474;10.768;2024-03-02T13:38:23;9.18;;;4.32;;
19985;SDS011;10154;52.474;10.768;2024-03-02T13:40:48;9.95;;;4.75;;
19985;SDS011;10154;52.474;10.768;2024-03-02T13:43:17;9.05;;;4.90;;
19985;SDS011;10154;52.474;10.768;2024-03-02T13:45:44;8.07;;;4.68;;
19985;SDS011;10154;52.474;10.768;2024-03-02T13:48:09;10.50;;;5.22;;
19985;SDS011;10154;52.474;10.768;2024-03-02T13:50:34;10.25;;;4.65;;
19985;SDS011;10154;52.474;10.768;2024-03-02T13:53:00;6.75;;;3.20;;
19985;SDS011;10154;52.474;10.768;2024-03-02T13:55:25;5.90;;;3.00;;
19985;SDS011;10154;52.474;10.768;2024-03-02T13:57:50;12.40;;;6.03;;
19985;SDS011;10154;52.474;10.768;2024-03-02T14:00:19;12.85;;;6.80;;
19985;SDS011;10154;52.474;10.768;2024-03-02T14:02:47;16.00;;;7.38;;
19985;SDS011;10154;52.474;10.768;2024-03-02T14:05:15;12.55;;;6.90;;
19985;SDS011;10154;52.474;10.768;2024-03-02T14:07:40;13.02;;;7.60;;
19985;SDS011;10154;52.474;10.768;2024-03-02T14:10:06;14.38;;;7.40;;
19985;SDS011;10154;52.474;10.768;2024-03-02T14:12:32;14.10;;;6.85;;
19985;SDS011;10154;52.474;10.768;2024-03-02T14:14:57;14.55;;;7.10;;
19985;SDS011;10154;52.474;10.768;2024-03-02T14:17:27;13.02;;;6.70;;
19985;SDS011;10154;52.474;10.768;2024-03-02T14:19:53;13.52;;;6.88;;
19985;SDS011;10154;52.474;10.768;2024-03-02T14:22:19;14.77;;;7.22;;
19985;SDS011;10154;52.474;10.768;2024-03-02T14:24:47;13.10;;;6.80;;
19985;SDS011;10154;52.474;10.768;2024-03-02T14:27:14;12.48;;;7.30;;
19985;SDS011;10154;52.474;10.768;2024-03-02T14:29:40;12.23;;;6.72;;
19985;SDS011;10154;52.474;10.768;2024-03-02T14:32:07;14.00;;;7.03;;
19985;SDS011;10154;52.474;10.768;2024-03-02T14:34:32;13.43;;;5.57;;
19985;SDS011;10154;52.474;10.768;2024-03-02T14:36:58;10.68;;;5.43;;
19985;SDS011;10154;52.474;10.768;2024-03-02T14:39:23;13.05;;;5.72;;
19985;SDS011;10154;52.474;10.768;2024-03-02T14:41:49;11.32;;;5.97;;
19985;SDS011;10154;52.474;10.768;2024-03-02T14:44:14;12.48;;;6.25;;